createdAt,value
2022-08-25T00:00:14.464Z,4.15
2022-08-25T00:02:55.175Z,3.15
2022-08-25T00:05:27.724Z,3.72
2022-08-25T00:07:57.540Z,7.13
2022-08-25T00:10:25.436Z,6.63
2022-08-25T00:12:54.826Z,2.92
2022-08-25T00:15:23.522Z,3.38
2022-08-25T00:17:51.524Z,4.63
2022-08-25T00:20:19.916Z,6.57
2022-08-25T00:22:48.806Z,4.07
2022-08-25T00:25:16.938Z,3.50
2022-08-25T00:27:45.919Z,5.10
2022-08-25T00:30:16.688Z,3.10
2022-08-25T00:32:51.489Z,3.70
2022-08-25T00:35:26.028Z,4.13
2022-08-25T00:37:53.826Z,3.28
2022-08-25T00:40:22.158Z,4.85
2022-08-25T00:42:49.996Z,7.07
2022-08-25T00:45:19.302Z,3.63
2022-08-25T00:47:47.587Z,3.83
2022-08-25T00:50:17.171Z,9.63
2022-08-25T00:52:50.475Z,6.22
2022-08-25T00:55:22.300Z,4.65
2022-08-25T00:57:55.541Z,5.60
2022-08-25T01:00:28.457Z,5.90
2022-08-25T01:02:57.874Z,5.95
2022-08-25T01:05:27.384Z,5.88
2022-08-25T01:07:57.517Z,3.88
2022-08-25T01:10:28.134Z,5.20
2022-08-25T01:13:02.596Z,5.60
2022-08-25T01:15:32.301Z,4.80
2022-08-25T01:18:01.049Z,4.18
2022-08-25T01:20:31.386Z,4.28
2022-08-25T01:23:01.249Z,7.95
2022-08-25T01:25:38.215Z,4.50
2022-08-25T01:28:06.832Z,7.45
2022-08-25T01:30:35.486Z,4.70
2022-08-25T01:33:05.084Z,6.47
2022-08-25T01:35:33.180Z,5.07
2022-08-25T01:38:02.676Z,4.60
2022-08-25T01:40:31.166Z,3.85
2022-08-25T01:43:07.475Z,6.72
2022-08-25T01:45:35.943Z,4.95
2022-08-25T01:48:05.063Z,4.78
2022-08-25T01:50:33.454Z,5.78
2022-08-25T01:53:07.686Z,5.78
2022-08-25T01:55:51.594Z,7.60
2022-08-25T01:58:19.973Z,4.57
2022-08-25T02:00:48.463Z,4.82
2022-08-25T02:03:18.822Z,5.72
2022-08-25T02:05:48.070Z,6.20
2022-08-25T02:08:18.012Z,7.88
2022-08-25T02:10:46.348Z,5.50
2022-08-25T02:13:14.406Z,6.88
2022-08-25T02:15:44.380Z,4.68
2022-08-25T02:18:13.008Z,7.05
2022-08-25T02:20:41.634Z,5.80
2022-08-25T02:23:10.114Z,5.82
2022-08-25T02:25:41.041Z,4.90
2022-08-25T02:28:10.417Z,7.32
2022-08-25T02:30:39.675Z,7.68
2022-08-25T02:33:08.255Z,8.15
2022-08-25T02:35:36.474Z,5.10
2022-08-25T02:38:05.439Z,5.07
2022-08-25T02:40:33.494Z,6.07
2022-08-25T02:43:03.121Z,8.63
2022-08-25T02:45:30.919Z,4.90
2022-08-25T02:47:58.675Z,9.95
2022-08-25T02:50:26.580Z,5.38
2022-08-25T02:52:54.946Z,6.13
2022-08-25T02:55:23.768Z,5.68
2022-08-25T02:57:51.535Z,5.80
2022-08-25T03:00:21.112Z,6.60
2022-08-25T03:02:51.031Z,6.15
2022-08-25T03:05:18.958Z,5.90
2022-08-25T03:07:46.836Z,7.18
2022-08-25T03:10:19.665Z,6.20
2022-08-25T03:12:47.860Z,5.72
2022-08-25T03:15:18.012Z,6.65
2022-08-25T03:17:49.258Z,7.53
2022-08-25T03:20:19.011Z,6.60
2022-08-25T03:22:46.803Z,5.68
2022-08-25T03:25:32.247Z,5.15
2022-08-25T03:28:00.110Z,6.50
2022-08-25T03:30:28.477Z,8.73
2022-08-25T03:32:57.622Z,5.65
2022-08-25T03:35:25.535Z,6.15
2022-08-25T03:37:57.217Z,8.43
2022-08-25T03:40:26.237Z,6.32
2022-08-25T03:42:54.984Z,7.93
2022-08-25T03:45:23.344Z,9.38
2022-08-25T03:47:51.977Z,7.40
2022-08-25T03:50:22.924Z,6.57
2022-08-25T03:52:55.132Z,6.65
2022-08-25T03:55:23.996Z,6.60
2022-08-25T03:57:52.667Z,7.50
2022-08-25T04:00:21.389Z,8.90
2022-08-25T04:02:49.393Z,6.20
2022-08-25T04:05:17.242Z,6.43
2022-08-25T04:07:46.617Z,6.78
2022-08-25T04:10:15.152Z,6.05
2022-08-25T04:12:42.988Z,7.80
2022-08-25T04:15:11.932Z,6.95
2022-08-25T04:17:41.257Z,8.55
2022-08-25T04:20:10.436Z,9.52
2022-08-25T04:22:44.996Z,5.72
2022-08-25T04:25:14.724Z,7.57
2022-08-25T04:27:42.914Z,12.77
2022-08-25T04:30:12.090Z,7.32
2022-08-25T04:32:39.896Z,6.53
2022-08-25T04:35:08.655Z,5.85
2022-08-25T04:37:36.657Z,7.47
2022-08-25T04:40:05.481Z,8.25
2022-08-25T04:42:35.044Z,9.10
2022-08-25T04:45:04.041Z,12.50
2022-08-25T04:47:32.193Z,12.00
2022-08-25T04:49:59.973Z,10.95
2022-08-25T04:52:27.726Z,8.48
2022-08-25T04:54:56.369Z,10.60
2022-08-25T04:57:24.159Z,9.50
2022-08-25T04:59:53.319Z,8.80
2022-08-25T05:02:21.076Z,9.93
2022-08-25T05:04:48.901Z,17.13
2022-08-25T05:07:16.745Z,9.65
2022-08-25T05:09:44.539Z,14.30
2022-08-25T05:12:12.614Z,10.50
2022-08-25T05:14:40.440Z,14.70
2022-08-25T05:17:10.231Z,9.40
2022-08-25T05:19:38.044Z,10.52
2022-08-25T05:22:06.640Z,11.98
2022-08-25T05:24:34.573Z,10.13
2022-08-25T05:27:03.821Z,14.45
2022-08-25T05:29:31.609Z,10.82
2022-08-25T05:31:59.417Z,7.97
2022-08-25T05:34:30.039Z,9.43
2022-08-25T05:37:00.012Z,12.27
2022-08-25T05:39:27.929Z,6.80
2022-08-25T05:41:55.692Z,10.18
2022-08-25T05:44:23.488Z,8.07
2022-08-25T05:46:51.398Z,17.10
2022-08-25T05:49:19.580Z,9.32
2022-08-25T05:51:48.740Z,10.10
2022-08-25T05:54:16.860Z,7.05
2022-08-25T05:56:46.360Z,11.38
2022-08-25T05:59:14.211Z,8.48
2022-08-25T06:01:59.653Z,7.13
2022-08-25T06:04:27.419Z,6.80
2022-08-25T06:06:56.527Z,8.02
2022-08-25T06:09:24.627Z,8.05
2022-08-25T06:11:54.945Z,11.73
2022-08-25T06:14:23.546Z,7.40
2022-08-25T06:16:52.054Z,9.13
2022-08-25T06:19:21.064Z,9.70
2022-08-25T06:21:49.156Z,9.95
2022-08-25T06:24:18.279Z,8.20
2022-08-25T06:26:46.079Z,8.90
2022-08-25T06:29:14.842Z,7.13
2022-08-25T06:31:43.104Z,10.38
2022-08-25T06:34:11.021Z,9.20
2022-08-25T06:36:38.801Z,8.00
2022-08-25T06:39:06.832Z,14.25
2022-08-25T06:41:36.855Z,9.00
2022-08-25T06:44:05.912Z,10.60
2022-08-25T06:46:35.945Z,11.65
2022-08-25T06:49:05.096Z,13.52
2022-08-25T06:51:35.561Z,12.15
2022-08-25T06:54:03.480Z,16.17
2022-08-25T06:56:31.320Z,12.82
2022-08-25T06:59:02.116Z,7.97
2022-08-25T07:01:31.814Z,8.23
2022-08-25T07:04:02.938Z,11.18
2022-08-25T07:06:32.657Z,6.97
2022-08-25T07:09:00.702Z,8.30
2022-08-25T07:11:29.258Z,5.53
2022-08-25T07:13:57.015Z,5.18
2022-08-25T07:16:29.630Z,4.88
2022-08-25T07:18:59.017Z,7.00
2022-08-25T07:21:33.126Z,4.22
2022-08-25T07:24:03.261Z,4.90
2022-08-25T07:26:37.675Z,7.88
2022-08-25T07:29:09.535Z,5.35
2022-08-25T07:31:38.899Z,4.88
2022-08-25T07:34:24.239Z,6.07
2022-08-25T07:36:53.529Z,5.90
2022-08-25T07:39:22.155Z,4.70
2022-08-25T07:41:52.223Z,5.60
2022-08-25T07:44:21.472Z,4.30
2022-08-25T07:46:51.240Z,4.88
2022-08-25T07:49:23.260Z,6.15
2022-08-25T07:52:04.322Z,4.45
2022-08-25T07:54:35.093Z,4.57
2022-08-25T07:57:04.008Z,4.22
2022-08-25T07:59:39.350Z,5.10
2022-08-25T08:02:20.890Z,5.38
2022-08-25T08:04:54.761Z,4.35
2022-08-25T08:07:33.622Z,5.63
2022-08-25T08:10:42.283Z,7.07
2022-08-25T08:13:01.013Z,4.68
2022-08-25T08:15:29.862Z,5.28
2022-08-25T08:17:58.335Z,4.68
2022-08-25T08:20:28.656Z,5.63
2022-08-25T08:22:56.467Z,5.95
2022-08-25T08:25:27.359Z,5.43
2022-08-25T08:27:56.741Z,5.78
2022-08-25T08:30:26.395Z,4.40
2022-08-25T08:33:11.996Z,4.68
2022-08-25T08:35:41.602Z,5.38
2022-08-25T08:38:14.447Z,5.18
2022-08-25T08:41:08.436Z,5.03
2022-08-25T08:43:37.254Z,4.75
2022-08-25T08:46:08.802Z,4.47
2022-08-25T08:48:56.698Z,4.70
2022-08-25T08:51:33.054Z,5.88
2022-08-25T08:54:15.065Z,6.35
2022-08-25T08:56:48.471Z,4.07
2022-08-25T08:59:20.135Z,5.65
2022-08-25T09:01:54.438Z,5.15
2022-08-25T09:04:28.763Z,5.88
2022-08-25T09:07:02.227Z,4.53
2022-08-25T09:09:35.606Z,4.35
2022-08-25T09:12:12.818Z,5.03
2022-08-25T09:14:55.529Z,6.28
2022-08-25T09:17:37.147Z,4.15
2022-08-25T09:20:19.429Z,6.20
2022-08-25T09:22:56.255Z,4.25
2022-08-25T09:28:21.576Z,4.13
2022-08-25T09:30:54.500Z,4.43
2022-08-25T09:33:25.633Z,4.75
2022-08-25T09:35:57.471Z,4.32
2022-08-25T09:38:30.828Z,3.72
2022-08-25T09:41:01.307Z,3.50
2022-08-25T09:43:34.454Z,4.13
2022-08-25T09:46:10.208Z,3.90
2022-08-25T09:48:46.303Z,4.80
2022-08-25T09:51:22.250Z,4.20
2022-08-25T09:53:56.583Z,5.18
2022-08-25T09:56:27.420Z,3.65
2022-08-25T09:59:01.157Z,3.38
2022-08-25T10:01:34.655Z,3.83
2022-08-25T10:04:05.788Z,5.28
2022-08-25T10:06:43.437Z,3.50
2022-08-25T10:09:26.516Z,3.10
2022-08-25T10:11:57.496Z,4.05
2022-08-25T10:14:30.060Z,3.83
2022-08-25T10:17:14.933Z,3.50
2022-08-25T10:19:43.695Z,4.10
2022-08-25T10:22:13.297Z,5.55
2022-08-25T10:24:43.896Z,5.10
2022-08-25T10:27:23.199Z,4.07
2022-08-25T10:30:13.968Z,4.43
2022-08-25T10:33:02.494Z,4.72
2022-08-25T10:35:36.865Z,3.47
2022-08-25T10:38:13.291Z,3.35
2022-08-25T10:40:57.693Z,3.38
2022-08-25T10:43:32.827Z,4.40
2022-08-25T10:46:09.668Z,4.05
2022-08-25T10:48:51.803Z,4.75
2022-08-25T10:51:33.852Z,4.50
2022-08-25T10:54:09.184Z,2.78
2022-08-25T10:56:41.903Z,3.42
2022-08-25T10:59:22.388Z,4.63
2022-08-25T11:02:30.465Z,3.50
2022-08-25T11:05:03.742Z,3.58
2022-08-25T11:07:36.505Z,4.38
2022-08-25T11:10:09.741Z,4.82
2022-08-25T11:15:15.093Z,3.42
2022-08-25T11:17:50.327Z,3.92
2022-08-25T11:20:26.813Z,4.50
2022-08-25T11:23:05.765Z,4.35
2022-08-25T11:25:38.052Z,3.50
2022-08-25T11:28:12.782Z,3.03
2022-08-25T11:33:13.132Z,5.65
2022-08-25T11:35:44.123Z,5.97
2022-08-25T11:38:27.439Z,5.97
2022-08-25T11:41:12.096Z,4.88
2022-08-25T11:44:00.241Z,4.45
2022-08-25T11:46:45.940Z,5.28
2022-08-25T11:49:31.542Z,7.88
2022-08-25T11:52:02.398Z,6.70
2022-08-25T11:54:38.671Z,3.60
2022-08-25T11:57:20.383Z,5.95
2022-08-25T12:00:09.331Z,3.25
2022-08-25T12:02:42.549Z,7.28
2022-08-25T12:05:33.033Z,5.55
2022-08-25T12:08:37.121Z,3.95
2022-08-25T12:11:11.150Z,3.47
2022-08-25T12:13:43.838Z,4.10
2022-08-25T12:16:40.435Z,4.47
2022-08-25T12:19:31.635Z,3.30
2022-08-25T12:22:38.152Z,5.72
2022-08-25T12:25:14.657Z,4.20
2022-08-25T12:27:48.796Z,4.88
2022-08-25T12:30:21.641Z,3.80
2022-08-25T12:33:07.829Z,4.60
2022-08-25T12:35:41.904Z,3.72
2022-08-25T12:38:13.660Z,3.55
2022-08-25T12:41:02.889Z,4.13
2022-08-25T12:43:37.227Z,5.38
2022-08-25T12:48:59.132Z,3.17
2022-08-25T12:51:29.732Z,3.53
2022-08-25T12:54:12.360Z,3.38
2022-08-25T12:56:48.842Z,3.65
2022-08-25T12:59:19.828Z,4.60
2022-08-25T13:02:16.296Z,4.05
2022-08-25T13:05:06.112Z,3.60
2022-08-25T13:07:50.508Z,5.28
2022-08-25T13:10:33.666Z,3.28
2022-08-25T13:13:10.039Z,3.50
2022-08-25T13:15:41.911Z,3.97
2022-08-25T13:18:19.259Z,7.10
2022-08-25T13:23:22.811Z,4.43
2022-08-25T13:28:29.267Z,3.88
2022-08-25T13:30:59.855Z,2.60
2022-08-25T13:33:28.317Z,4.95
2022-08-25T13:36:12.554Z,3.75
2022-08-25T13:38:40.550Z,4.40
2022-08-25T13:41:10.182Z,4.90
2022-08-25T13:43:41.036Z,3.25
2022-08-25T13:46:08.963Z,3.47
2022-08-25T13:48:49.383Z,5.53
2022-08-25T13:51:22.373Z,3.50
2022-08-25T13:53:52.447Z,3.13
2022-08-25T13:56:29.870Z,4.00
2022-08-25T13:59:04.708Z,2.92
2022-08-25T14:01:49.475Z,3.35
2022-08-25T14:04:29.417Z,6.45
2022-08-25T14:07:13.061Z,3.53
2022-08-25T14:09:46.805Z,4.13
2022-08-25T14:12:32.988Z,7.28
2022-08-25T14:15:08.101Z,5.13
2022-08-25T14:17:39.707Z,3.15
2022-08-25T14:20:21.831Z,4.75
2022-08-25T14:22:53.732Z,7.60
2022-08-25T14:25:21.812Z,5.20
2022-08-25T14:28:13.673Z,3.40
2022-08-25T14:30:49.302Z,2.95
2022-08-25T14:33:23.090Z,5.57
2022-08-25T14:35:54.151Z,5.07
2022-08-25T14:38:24.455Z,5.15
2022-08-25T14:40:53.318Z,3.53
2022-08-25T14:43:24.130Z,3.55
2022-08-25T14:46:02.760Z,4.70
2022-08-25T14:48:36.072Z,3.20
2022-08-25T14:51:05.240Z,3.28
2022-08-25T14:53:33.563Z,3.75
2022-08-25T14:56:08.607Z,3.58
2022-08-25T14:58:50.829Z,6.40
2022-08-25T15:01:29.220Z,3.58
2022-08-25T15:04:01.915Z,3.28
2022-08-25T15:06:30.276Z,4.88
2022-08-25T15:09:13.435Z,2.85
2022-08-25T15:11:43.764Z,4.60
2022-08-25T15:14:15.335Z,3.95
2022-08-25T15:16:47.380Z,4.85
2022-08-25T15:19:18.599Z,3.03
2022-08-25T15:21:49.494Z,2.65
2022-08-25T15:24:18.352Z,5.82
2022-08-25T15:29:24.200Z,5.13
2022-08-25T15:31:53.377Z,5.90
2022-08-25T15:34:21.434Z,8.90
2022-08-25T15:36:50.932Z,2.78
2022-08-25T15:39:19.149Z,4.38
2022-08-25T15:41:49.401Z,4.93
2022-08-25T15:44:17.814Z,2.92
2022-08-25T15:46:50.246Z,3.13
2022-08-25T15:49:20.371Z,4.88
2022-08-25T15:51:51.528Z,5.45
2022-08-25T15:54:20.641Z,2.90
2022-08-25T15:56:48.743Z,2.35
2022-08-25T15:59:17.116Z,4.85
2022-08-25T16:01:45.481Z,5.07
2022-08-25T16:04:14.377Z,3.30
2022-08-25T16:06:43.465Z,3.20
2022-08-25T16:09:13.116Z,3.92
2022-08-25T16:11:43.255Z,3.33
2022-08-25T16:14:11.720Z,3.42
2022-08-25T16:16:41.660Z,4.63
2022-08-25T16:19:10.419Z,4.95
2022-08-25T16:21:38.943Z,3.67
2022-08-25T16:26:48.228Z,4.47
2022-08-25T16:29:17.031Z,5.60
2022-08-25T16:31:45.117Z,2.85
2022-08-25T16:34:20.951Z,3.85
2022-08-25T16:36:48.709Z,2.35
2022-08-25T16:39:21.416Z,5.32
2022-08-25T16:41:52.568Z,6.30
2022-08-25T16:44:22.694Z,6.90
2022-08-25T16:46:54.027Z,10.05
2022-08-25T16:49:24.475Z,4.10
2022-08-25T16:51:57.118Z,4.65
2022-08-25T16:54:44.516Z,4.10
2022-08-25T16:57:12.872Z,2.80
2022-08-25T16:59:42.370Z,5.57
2022-08-25T17:02:11.733Z,6.03
2022-08-25T17:04:40.618Z,3.17
2022-08-25T17:07:08.659Z,5.15
2022-08-25T17:09:37.766Z,4.07
2022-08-25T17:12:05.847Z,3.72
2022-08-25T17:14:33.639Z,3.33
2022-08-25T17:17:01.486Z,3.67
2022-08-25T17:19:29.313Z,2.70
2022-08-25T17:21:58.436Z,4.22
2022-08-25T17:24:29.623Z,11.82
2022-08-25T17:27:02.025Z,8.13
2022-08-25T17:29:30.246Z,5.85
2022-08-25T17:31:58.377Z,3.63
2022-08-25T17:34:27.433Z,3.95
2022-08-25T17:36:56.108Z,3.88
2022-08-25T17:39:25.293Z,5.50
2022-08-25T17:41:53.222Z,3.75
2022-08-25T17:44:22.421Z,3.38
2022-08-25T17:46:50.742Z,4.10
2022-08-25T17:49:19.480Z,5.95
2022-08-25T17:51:47.313Z,10.77
2022-08-25T17:54:15.453Z,4.18
2022-08-25T17:56:43.785Z,3.55
2022-08-25T17:59:12.007Z,4.30
2022-08-25T18:01:42.114Z,2.33
2022-08-25T18:04:17.012Z,5.22
2022-08-25T18:06:45.784Z,6.97
2022-08-25T18:09:13.641Z,6.07
2022-08-25T18:11:41.980Z,3.80
2022-08-25T18:14:11.175Z,3.13
2022-08-25T18:16:39.413Z,3.83
2022-08-25T18:19:09.846Z,2.92
2022-08-25T18:21:38.274Z,4.68
2022-08-25T18:24:06.574Z,4.68
2022-08-25T18:26:34.642Z,2.95
2022-08-25T18:29:02.457Z,5.25
2022-08-25T18:31:30.668Z,4.03
2022-08-25T18:33:58.771Z,3.95
2022-08-25T18:36:27.849Z,5.78
2022-08-25T18:39:13.606Z,4.97
2022-08-25T18:44:10.824Z,7.32
2022-08-25T18:46:39.728Z,9.00
2022-08-25T18:49:07.597Z,3.80
2022-08-25T18:51:38.069Z,6.50
2022-08-25T18:54:06.833Z,6.07
2022-08-25T18:56:46.912Z,4.03
2022-08-25T18:59:14.768Z,3.25
2022-08-25T19:01:44.584Z,4.18
2022-08-25T19:04:14.916Z,6.20
2022-08-25T19:06:44.628Z,3.25
2022-08-25T19:09:12.466Z,6.18
2022-08-25T19:11:40.428Z,5.18
2022-08-25T19:14:12.390Z,4.75
2022-08-25T19:16:43.636Z,4.63
2022-08-25T19:19:14.288Z,4.25
2022-08-25T19:21:42.841Z,5.95
2022-08-25T19:24:14.291Z,3.97
2022-08-25T19:26:43.150Z,4.38
2022-08-25T19:29:14.141Z,4.55
2022-08-25T19:31:44.475Z,4.90
2022-08-25T19:34:18.095Z,3.90
2022-08-25T19:36:47.708Z,5.60
2022-08-25T19:39:16.963Z,4.40
2022-08-25T19:41:46.356Z,3.30
2022-08-25T19:44:14.411Z,5.25
2022-08-25T19:46:44.901Z,6.30
2022-08-25T19:49:15.184Z,5.32
2022-08-25T19:51:45.157Z,4.45
2022-08-25T19:54:14.724Z,2.70
2022-08-25T19:56:54.354Z,4.07
2022-08-25T19:59:24.591Z,3.67
2022-08-25T20:01:52.523Z,4.18
2022-08-25T20:04:20.431Z,3.97
2022-08-25T20:06:48.557Z,4.10
2022-08-25T20:09:35.597Z,3.90
2022-08-25T20:12:08.264Z,4.35
2022-08-25T20:14:36.682Z,4.50
2022-08-25T20:17:23.813Z,4.32
2022-08-25T20:19:54.087Z,3.58
2022-08-25T20:22:26.361Z,5.15
2022-08-25T20:24:58.585Z,6.15
2022-08-25T20:27:32.656Z,3.80
2022-08-25T20:30:02.528Z,3.95
2022-08-25T20:32:32.142Z,7.05
2022-08-25T20:35:00.088Z,3.97
2022-08-25T20:37:27.943Z,4.72
2022-08-25T20:39:55.937Z,5.88
2022-08-25T20:42:23.811Z,5.88
2022-08-25T20:44:54.579Z,4.90
2022-08-25T20:47:22.739Z,4.18
2022-08-25T20:49:50.788Z,4.22
2022-08-25T20:52:19.561Z,5.00
2022-08-25T20:54:49.384Z,5.00
2022-08-25T20:57:19.067Z,5.90
2022-08-25T21:02:23.806Z,4.28
2022-08-25T21:04:52.332Z,4.32
2022-08-25T21:07:21.220Z,6.97
2022-08-25T21:09:52.121Z,12.25
2022-08-25T21:12:20.163Z,7.80
2022-08-25T21:14:48.148Z,6.47
2022-08-25T21:17:19.142Z,5.97
2022-08-25T21:22:20.549Z,5.93
2022-08-25T21:24:48.399Z,5.30
2022-08-25T21:27:16.212Z,4.95
2022-08-25T21:29:44.663Z,5.90
2022-08-25T21:32:24.329Z,5.60
2022-08-25T21:34:53.693Z,9.60
2022-08-25T21:37:21.955Z,5.80
2022-08-25T21:39:49.933Z,4.65
2022-08-25T21:42:17.870Z,8.35
2022-08-25T21:44:45.679Z,4.30
2022-08-25T21:47:13.587Z,4.72
2022-08-25T21:49:44.021Z,4.35
2022-08-25T21:52:12.098Z,6.75
2022-08-25T21:54:39.998Z,5.35
2022-08-25T21:57:07.827Z,8.48
2022-08-25T21:59:40.221Z,6.25
2022-08-25T22:02:09.967Z,8.23
2022-08-25T22:04:39.329Z,4.82
2022-08-25T22:07:09.295Z,5.95
2022-08-25T22:09:37.559Z,5.28
2022-08-25T22:12:06.691Z,5.13
2022-08-25T22:14:35.548Z,5.80
2022-08-25T22:17:03.491Z,6.35
2022-08-25T22:19:31.700Z,9.05
2022-08-25T22:22:01.526Z,7.35
2022-08-25T22:24:30.989Z,7.28
2022-08-25T22:26:58.831Z,6.82
2022-08-25T22:29:28.528Z,7.18
2022-08-25T22:32:02.405Z,5.28
2022-08-25T22:34:34.162Z,5.90
2022-08-25T22:37:03.542Z,6.53
2022-08-25T22:39:34.568Z,4.57
2022-08-25T22:42:02.692Z,6.93
2022-08-25T22:44:30.937Z,5.10
2022-08-25T22:46:58.867Z,7.60
2022-08-25T22:49:29.312Z,6.70
2022-08-25T22:51:58.303Z,6.75
2022-08-25T22:54:26.310Z,6.05
2022-08-25T22:56:55.581Z,7.70
2022-08-25T22:59:23.475Z,7.47
2022-08-25T23:01:54.710Z,7.18
2022-08-25T23:04:25.180Z,8.73
2022-08-25T23:06:53.124Z,8.93
2022-08-25T23:09:22.135Z,7.20
2022-08-25T23:11:51.203Z,7.65
2022-08-25T23:14:20.722Z,8.15
2022-08-25T23:16:49.888Z,4.65
2022-08-25T23:19:18.539Z,8.05
2022-08-25T23:22:05.113Z,7.25
2022-08-25T23:24:33.646Z,5.93
2022-08-25T23:27:03.886Z,5.68
2022-08-25T23:29:39.167Z,6.65
2022-08-25T23:32:09.552Z,6.40
2022-08-25T23:34:46.758Z,11.38
2022-08-25T23:37:15.947Z,8.55
2022-08-25T23:39:45.460Z,8.00
2022-08-25T23:42:13.496Z,8.50
2022-08-25T23:44:42.661Z,6.93
2022-08-25T23:47:11.890Z,6.30
2022-08-25T23:49:40.226Z,6.03
2022-08-25T23:52:08.139Z,6.28
2022-08-25T23:54:36.196Z,8.88
2022-08-25T23:57:06.981Z,6.18
2022-08-25T23:59:34.943Z,8.60
